sensor_id;sensor_type;location;lat;lon;timestamp;temperature;humidity
26687;DHT22;14298;50.900;4.648;2022-07-29T00:00:18;16.80;97.10
26687;DHT22;14298;50.900;4.648;2022-07-29T00:02:47;16.70;97.10
26687;DHT22;14298;50.900;4.648;2022-07-29T00:05:15;16.60;97.10
26687;DHT22;14298;50.900;4.648;2022-07-29T00:07:44;16.60;97.10
26687;DHT22;14298;50.900;4.648;2022-07-29T00:10:12;16.60;97.10
26687;DHT22;14298;50.900;4.648;2022-07-29T00:12:40;16.70;97.10
26687;DHT22;14298;50.900;4.648;2022-07-29T00:15:09;16.70;97.10
26687;DHT22;14298;50.900;4.648;2022-07-29T00:17:37;16.80;97.10
26687;DHT22;14298;50.900;4.648;2022-07-29T00:20:07;16.80;97.10
26687;DHT22;14298;50.900;4.648;2022-07-29T00:22:37;16.80;97.10
26687;DHT22;14298;50.900;4.648;2022-07-29T00:25:06;16.80;97.10
26687;DHT22;14298;50.900;4.648;2022-07-29T00:27:36;16.80;97.10
26687;DHT22;14298;50.900;4.648;2022-07-29T00:30:05;16.70;97.10
26687;DHT22;14298;50.900;4.648;2022-07-29T00:32:34;16.70;97.10
26687;DHT22;14298;50.900;4.648;2022-07-29T00:35:03;16.80;97.10
26687;DHT22;14298;50.900;4.648;2022-07-29T00:37:50;16.80;97.10
26687;DHT22;14298;50.900;4.648;2022-07-29T00:40:18;16.80;97.10
26687;DHT22;14298;50.900;4.648;2022-07-29T00:42:48;16.90;97.10
26687;DHT22;14298;50.900;4.648;2022-07-29T00:45:17;16.90;97.10
26687;DHT22;14298;50.900;4.648;2022-07-29T00:47:46;17.00;97.10
26687;DHT22;14298;50.900;4.648;2022-07-29T00:50:14;17.00;97.10
26687;DHT22;14298;50.900;4.648;2022-07-29T00:52:43;16.90;97.10
26687;DHT22;14298;50.900;4.648;2022-07-29T00:55:13;16.90;97.10
26687;DHT22;14298;50.900;4.648;2022-07-29T00:57:44;16.90;97.10
26687;DHT22;14298;50.900;4.648;2022-07-29T01:00:16;16.90;97.10
26687;DHT22;14298;50.900;4.648;2022-07-29T01:02:45;16.80;97.10
26687;DHT22;14298;50.900;4.648;2022-07-29T01:05:17;16.70;97.10
26687;DHT22;14298;50.900;4.648;2022-07-29T01:07:48;16.70;97.10
26687;DHT22;14298;50.900;4.648;2022-07-29T01:10:19;16.70;97.10
26687;DHT22;14298;50.900;4.648;2022-07-29T01:12:50;16.60;97.10
26687;DHT22;14298;50.900;4.648;2022-07-29T01:15:19;16.60;97.10
26687;DHT22;14298;50.900;4.648;2022-07-29T01:17:52;16.60;97.10
26687;DHT22;14298;50.900;4.648;2022-07-29T01:34:29;16.40;97.10
26687;DHT22;14298;50.900;4.648;2022-07-29T01:37:22;16.30;97.10
26687;DHT22;14298;50.900;4.648;2022-07-29T01:39:52;16.20;97.10
26687;DHT22;14298;50.900;4.648;2022-07-29T01:50:21;15.90;97.10
26687;DHT22;14298;50.900;4.648;2022-07-29T01:53:02;15.80;97.10
26687;DHT22;14298;50.900;4.648;2022-07-29T01:55:34;15.70;97.10
26687;DHT22;14298;50.900;4.648;2022-07-29T01:58:04;15.60;97.10
26687;DHT22;14298;50.900;4.648;2022-07-29T02:00:34;15.50;97.10
26687;DHT22;14298;50.900;4.648;2022-07-29T02:03:07;15.40;97.10
26687;DHT22;14298;50.900;4.648;2022-07-29T02:05:37;15.40;97.10
26687;DHT22;14298;50.900;4.648;2022-07-29T02:08:07;15.30;97.10
26687;DHT22;14298;50.900;4.648;2022-07-29T02:10:36;15.20;97.10
26687;DHT22;14298;50.900;4.648;2022-07-29T02:13:07;15.10;97.10
26687;DHT22;14298;50.900;4.648;2022-07-29T02:15:37;15.10;97.10
26687;DHT22;14298;50.900;4.648;2022-07-29T02:18:15;15.00;97.10
26687;DHT22;14298;50.900;4.648;2022-07-29T02:20:50;15.00;97.10
26687;DHT22;14298;50.900;4.648;2022-07-29T02:23:21;14.90;97.10
26687;DHT22;14298;50.900;4.648;2022-07-29T02:25:53;14.80;97.10
26687;DHT22;14298;50.900;4.648;2022-07-29T02:28:24;14.70;97.10
26687;DHT22;14298;50.900;4.648;2022-07-29T02:30:55;14.70;97.10
26687;DHT22;14298;50.900;4.648;2022-07-29T02:33:24;14.60;97.10
26687;DHT22;14298;50.900;4.648;2022-07-29T02:35:53;14.60;97.10
26687;DHT22;14298;50.900;4.648;2022-07-29T02:38:24;14.60;97.10
26687;DHT22;14298;50.900;4.648;2022-07-29T02:41:15;14.60;97.10
26687;DHT22;14298;50.900;4.648;2022-07-29T02:43:44;14.60;97.10
26687;DHT22;14298;50.900;4.648;2022-07-29T02:46:24;14.50;97.10
26687;DHT22;14298;50.900;4.648;2022-07-29T02:49:16;14.50;97.10
26687;DHT22;14298;50.900;4.648;2022-07-29T02:51:28;14.50;97.10
26687;DHT22;14298;50.900;4.648;2022-07-29T02:53:59;14.50;97.10
26687;DHT22;14298;50.900;4.648;2022-07-29T02:56:30;14.40;97.10
26687;DHT22;14298;50.900;4.648;2022-07-29T02:59:04;14.40;97.10
26687;DHT22;14298;50.900;4.648;2022-07-29T03:01:33;14.30;97.10
26687;DHT22;14298;50.900;4.648;2022-07-29T03:04:04;14.30;97.10
26687;DHT22;14298;50.900;4.648;2022-07-29T03:06:34;14.30;97.10
26687;DHT22;14298;50.900;4.648;2022-07-29T03:09:02;14.30;97.10
26687;DHT22;14298;50.900;4.648;2022-07-29T03:11:31;14.30;97.10
26687;DHT22;14298;50.900;4.648;2022-07-29T03:14:01;14.30;97.10
26687;DHT22;14298;50.900;4.648;2022-07-29T03:16:30;14.30;97.10
26687;DHT22;14298;50.900;4.648;2022-07-29T03:19:01;14.30;97.10
26687;DHT22;14298;50.900;4.648;2022-07-29T03:21:30;14.20;97.10
26687;DHT22;14298;50.900;4.648;2022-07-29T03:23:58;14.20;97.10
26687;DHT22;14298;50.900;4.648;2022-07-29T03:26:27;14.10;97.10
26687;DHT22;14298;50.900;4.648;2022-07-29T03:28:56;14.10;97.10
26687;DHT22;14298;50.900;4.648;2022-07-29T03:31:24;14.00;97.10
26687;DHT22;14298;50.900;4.648;2022-07-29T03:33:52;14.00;97.10
26687;DHT22;14298;50.900;4.648;2022-07-29T03:36:21;13.90;97.10
26687;DHT22;14298;50.900;4.648;2022-07-29T03:38:49;13.80;97.10
26687;DHT22;14298;50.900;4.648;2022-07-29T03:41:18;13.70;97.10
26687;DHT22;14298;50.900;4.648;2022-07-29T03:43:49;13.70;97.10
26687;DHT22;14298;50.900;4.648;2022-07-29T03:46:22;13.70;97.10
26687;DHT22;14298;50.900;4.648;2022-07-29T03:48:52;13.60;97.10
26687;DHT22;14298;50.900;4.648;2022-07-29T03:51:22;13.60;97.10
26687;DHT22;14298;50.900;4.648;2022-07-29T03:53:50;13.60;97.10
26687;DHT22;14298;50.900;4.648;2022-07-29T03:56:21;13.50;97.10
26687;DHT22;14298;50.900;4.648;2022-07-29T03:58:53;13.40;97.10
26687;DHT22;14298;50.900;4.648;2022-07-29T04:01:22;13.40;97.10
26687;DHT22;14298;50.900;4.648;2022-07-29T04:03:52;13.30;97.10
26687;DHT22;14298;50.900;4.648;2022-07-29T04:06:20;13.30;97.10
26687;DHT22;14298;50.900;4.648;2022-07-29T04:08:48;13.20;97.10
26687;DHT22;14298;50.900;4.648;2022-07-29T04:11:17;13.20;97.10
26687;DHT22;14298;50.900;4.648;2022-07-29T04:13:45;13.20;97.10
26687;DHT22;14298;50.900;4.648;2022-07-29T04:16:13;13.20;97.10
26687;DHT22;14298;50.900;4.648;2022-07-29T04:18:42;13.20;97.10
26687;DHT22;14298;50.900;4.648;2022-07-29T04:21:10;13.20;97.10
26687;DHT22;14298;50.900;4.648;2022-07-29T04:23:38;13.10;97.10
26687;DHT22;14298;50.900;4.648;2022-07-29T04:26:13;13.10;97.10
26687;DHT22;14298;50.900;4.648;2022-07-29T04:28:38;13.10;97.10
26687;DHT22;14298;50.900;4.648;2022-07-29T04:31:07;13.10;97.10
26687;DHT22;14298;50.900;4.648;2022-07-29T04:33:35;13.10;97.10
26687;DHT22;14298;50.900;4.648;2022-07-29T04:36:04;13.10;97.10
26687;DHT22;14298;50.900;4.648;2022-07-29T04:38:32;13.10;97.10
26687;DHT22;14298;50.900;4.648;2022-07-29T04:41:01;13.10;97.10
26687;DHT22;14298;50.900;4.648;2022-07-29T04:43:29;13.20;97.10
26687;DHT22;14298;50.900;4.648;2022-07-29T04:45:58;13.10;97.10
26687;DHT22;14298;50.900;4.648;2022-07-29T04:48:29;13.20;97.10
26687;DHT22;14298;50.900;4.648;2022-07-29T04:50:58;13.20;97.10
26687;DHT22;14298;50.900;4.648;2022-07-29T04:53:26;13.30;97.10
26687;DHT22;14298;50.900;4.648;2022-07-29T04:55:55;13.30;97.10
26687;DHT22;14298;50.900;4.648;2022-07-29T04:58:23;13.40;97.10
26687;DHT22;14298;50.900;4.648;2022-07-29T05:00:52;13.50;97.10
26687;DHT22;14298;50.900;4.648;2022-07-29T05:03:20;13.60;97.10
26687;DHT22;14298;50.900;4.648;2022-07-29T05:05:48;13.70;97.10
26687;DHT22;14298;50.900;4.648;2022-07-29T05:08:17;13.80;97.10
26687;DHT22;14298;50.900;4.648;2022-07-29T05:10:46;13.90;97.10
26687;DHT22;14298;50.900;4.648;2022-07-29T05:13:15;14.00;97.10
26687;DHT22;14298;50.900;4.648;2022-07-29T05:15:43;14.10;97.10
26687;DHT22;14298;50.900;4.648;2022-07-29T05:18:12;14.20;97.10
26687;DHT22;14298;50.900;4.648;2022-07-29T05:20:41;14.30;97.10
26687;DHT22;14298;50.900;4.648;2022-07-29T05:23:09;14.50;97.10
26687;DHT22;14298;50.900;4.648;2022-07-29T05:25:39;14.70;97.10
26687;DHT22;14298;50.900;4.648;2022-07-29T05:28:08;14.80;97.10
26687;DHT22;14298;50.900;4.648;2022-07-29T05:30:36;15.10;97.10
26687;DHT22;14298;50.900;4.648;2022-07-29T05:33:04;15.30;97.10
26687;DHT22;14298;50.900;4.648;2022-07-29T05:35:33;15.60;97.10
26687;DHT22;14298;50.900;4.648;2022-07-29T05:38:02;15.90;97.10
26687;DHT22;14298;50.900;4.648;2022-07-29T05:40:30;16.30;97.10
26687;DHT22;14298;50.900;4.648;2022-07-29T05:42:59;16.60;97.10
26687;DHT22;14298;50.900;4.648;2022-07-29T05:45:28;16.80;97.10
26687;DHT22;14298;50.900;4.648;2022-07-29T05:47:56;17.10;97.10
26687;DHT22;14298;50.900;4.648;2022-07-29T05:50:24;17.30;97.10
26687;DHT22;14298;50.900;4.648;2022-07-29T05:52:52;17.40;97.10
26687;DHT22;14298;50.900;4.648;2022-07-29T05:55:21;17.30;97.10
26687;DHT22;14298;50.900;4.648;2022-07-29T05:57:49;17.30;97.10
26687;DHT22;14298;50.900;4.648;2022-07-29T06:00:19;17.30;97.10
26687;DHT22;14298;50.900;4.648;2022-07-29T06:02:48;17.30;97.10
26687;DHT22;14298;50.900;4.648;2022-07-29T06:05:16;17.40;97.10
26687;DHT22;14298;50.900;4.648;2022-07-29T06:07:45;17.60;97.10
26687;DHT22;14298;50.900;4.648;2022-07-29T06:10:13;17.70;97.10
26687;DHT22;14298;50.900;4.648;2022-07-29T06:12:41;17.70;97.10
26687;DHT22;14298;50.900;4.648;2022-07-29T06:15:10;17.50;97.10
26687;DHT22;14298;50.900;4.648;2022-07-29T06:17:38;17.40;97.10
26687;DHT22;14298;50.900;4.648;2022-07-29T06:20:07;17.70;97.10
26687;DHT22;14298;50.900;4.648;2022-07-29T06:22:36;18.00;97.10
26687;DHT22;14298;50.900;4.648;2022-07-29T06:25:04;18.30;97.10
26687;DHT22;14298;50.900;4.648;2022-07-29T06:27:33;18.60;97.10
26687;DHT22;14298;50.900;4.648;2022-07-29T06:30:02;18.90;97.10
26687;DHT22;14298;50.900;4.648;2022-07-29T06:32:30;19.30;97.10
26687;DHT22;14298;50.900;4.648;2022-07-29T06:34:59;19.50;97.10
26687;DHT22;14298;50.900;4.648;2022-07-29T06:37:27;19.70;97.10
26687;DHT22;14298;50.900;4.648;2022-07-29T06:39:55;19.80;97.10
26687;DHT22;14298;50.900;4.648;2022-07-29T06:42:43;20.00;97.10
26687;DHT22;14298;50.900;4.648;2022-07-29T06:45:12;20.00;97.10
26687;DHT22;14298;50.900;4.648;2022-07-29T06:47:40;19.90;97.10
26687;DHT22;14298;50.900;4.648;2022-07-29T06:50:09;19.90;97.10
26687;DHT22;14298;50.900;4.648;2022-07-29T06:52:39;19.80;97.10
26687;DHT22;14298;50.900;4.648;2022-07-29T06:55:08;20.00;97.10
26687;DHT22;14298;50.900;4.648;2022-07-29T06:57:37;20.50;97.10
26687;DHT22;14298;50.900;4.648;2022-07-29T07:00:06;20.60;97.10
26687;DHT22;14298;50.900;4.648;2022-07-29T07:02:35;20.70;97.10
26687;DHT22;14298;50.900;4.648;2022-07-29T07:05:03;21.00;97.10
26687;DHT22;14298;50.900;4.648;2022-07-29T07:07:32;20.90;97.10
26687;DHT22;14298;50.900;4.648;2022-07-29T07:10:01;20.60;97.10
26687;DHT22;14298;50.900;4.648;2022-07-29T07:12:29;20.50;97.10
26687;DHT22;14298;50.900;4.648;2022-07-29T07:14:57;20.80;97.10
26687;DHT22;14298;50.900;4.648;2022-07-29T07:17:26;21.30;97.10
26687;DHT22;14298;50.900;4.648;2022-07-29T07:19:54;21.40;97.10
26687;DHT22;14298;50.900;4.648;2022-07-29T07:22:22;21.70;97.10
26687;DHT22;14298;50.900;4.648;2022-07-29T07:24:50;21.50;97.10
26687;DHT22;14298;50.900;4.648;2022-07-29T07:27:19;21.60;97.10
26687;DHT22;14298;50.900;4.648;2022-07-29T07:29:47;21.60;97.10
26687;DHT22;14298;50.900;4.648;2022-07-29T07:32:15;21.90;97.10
26687;DHT22;14298;50.900;4.648;2022-07-29T07:34:44;21.80;97.10
26687;DHT22;14298;50.900;4.648;2022-07-29T07:37:12;22.70;97.10
26687;DHT22;14298;50.900;4.648;2022-07-29T07:39:41;23.30;97.10
26687;DHT22;14298;50.900;4.648;2022-07-29T07:42:10;23.40;97.10
26687;DHT22;14298;50.900;4.648;2022-07-29T07:44:40;23.60;97.10
26687;DHT22;14298;50.900;4.648;2022-07-29T07:47:08;23.90;97.10
26687;DHT22;14298;50.900;4.648;2022-07-29T07:49:37;23.50;97.10
26687;DHT22;14298;50.900;4.648;2022-07-29T07:52:05;23.40;97.10
26687;DHT22;14298;50.900;4.648;2022-07-29T07:54:34;24.20;97.10
26687;DHT22;14298;50.900;4.648;2022-07-29T07:57:03;24.50;97.10
26687;DHT22;14298;50.900;4.648;2022-07-29T07:59:31;24.40;97.10
26687;DHT22;14298;50.900;4.648;2022-07-29T08:01:59;24.70;97.10
26687;DHT22;14298;50.900;4.648;2022-07-29T08:04:28;24.40;97.10
26687;DHT22;14298;50.900;4.648;2022-07-29T08:06:57;24.10;97.10
26687;DHT22;14298;50.900;4.648;2022-07-29T08:09:27;24.00;97.10
26687;DHT22;14298;50.900;4.648;2022-07-29T08:11:57;24.60;97.10
26687;DHT22;14298;50.900;4.648;2022-07-29T08:14:26;25.30;97.10
26687;DHT22;14298;50.900;4.648;2022-07-29T08:16:54;25.40;97.10
26687;DHT22;14298;50.900;4.648;2022-07-29T08:19:23;25.10;97.10
26687;DHT22;14298;50.900;4.648;2022-07-29T08:21:51;25.20;97.10
26687;DHT22;14298;50.900;4.648;2022-07-29T08:24:21;25.00;97.10
26687;DHT22;14298;50.900;4.648;2022-07-29T08:27:08;25.20;97.10
26687;DHT22;14298;50.900;4.648;2022-07-29T08:29:37;25.60;97.10
26687;DHT22;14298;50.900;4.648;2022-07-29T08:32:06;26.10;97.10
26687;DHT22;14298;50.900;4.648;2022-07-29T08:34:34;26.80;97.10
26687;DHT22;14298;50.900;4.648;2022-07-29T08:37:03;27.40;97.10
26687;DHT22;14298;50.900;4.648;2022-07-29T08:39:31;27.90;97.10
26687;DHT22;14298;50.900;4.648;2022-07-29T08:41:59;28.00;97.10
26687;DHT22;14298;50.900;4.648;2022-07-29T08:44:28;28.40;97.10
26687;DHT22;14298;50.900;4.648;2022-07-29T08:46:56;28.90;97.10
26687;DHT22;14298;50.900;4.648;2022-07-29T08:49:25;28.80;97.10
26687;DHT22;14298;50.900;4.648;2022-07-29T08:51:53;28.90;97.10
26687;DHT22;14298;50.900;4.648;2022-07-29T08:54:23;28.90;97.10
26687;DHT22;14298;50.900;4.648;2022-07-29T08:56:52;29.20;97.10
26687;DHT22;14298;50.900;4.648;2022-07-29T08:59:22;29.30;97.10
26687;DHT22;14298;50.900;4.648;2022-07-29T09:01:52;29.80;97.10
26687;DHT22;14298;50.900;4.648;2022-07-29T09:04:21;30.00;97.10
26687;DHT22;14298;50.900;4.648;2022-07-29T09:06:52;29.90;97.10
26687;DHT22;14298;50.900;4.648;2022-07-29T09:09:22;30.10;97.10
26687;DHT22;14298;50.900;4.648;2022-07-29T09:11:51;30.70;97.10
26687;DHT22;14298;50.900;4.648;2022-07-29T09:14:20;31.90;97.10
26687;DHT22;14298;50.900;4.648;2022-07-29T09:16:55;33.10;96.80
26687;DHT22;14298;50.900;4.648;2022-07-29T09:19:22;34.70;93.40
26687;DHT22;14298;50.900;4.648;2022-07-29T09:21:51;35.50;91.80
26687;DHT22;14298;50.900;4.648;2022-07-29T09:27:22;34.00;91.40
26687;DHT22;14298;50.900;4.648;2022-07-29T09:29:41;33.50;92.50
26687;DHT22;14298;50.900;4.648;2022-07-29T09:32:10;34.40;91.40
26687;DHT22;14298;50.900;4.648;2022-07-29T09:34:39;35.50;90.00
26687;DHT22;14298;50.900;4.648;2022-07-29T09:37:07;33.30;91.10
26687;DHT22;14298;50.900;4.648;2022-07-29T09:39:39;32.50;94.30
26687;DHT22;14298;50.900;4.648;2022-07-29T09:42:09;31.80;96.00
26687;DHT22;14298;50.900;4.648;2022-07-29T09:44:46;31.80;96.20
26687;DHT22;14298;50.900;4.648;2022-07-29T09:47:17;31.60;96.90
26687;DHT22;14298;50.900;4.648;2022-07-29T09:49:57;31.20;97.10
26687;DHT22;14298;50.900;4.648;2022-07-29T09:52:27;30.30;97.10
26687;DHT22;14298;50.900;4.648;2022-07-29T09:55:09;30.10;97.10
26687;DHT22;14298;50.900;4.648;2022-07-29T09:57:37;30.50;97.10
26687;DHT22;14298;50.900;4.648;2022-07-29T10:00:12;29.50;97.10
26687;DHT22;14298;50.900;4.648;2022-07-29T10:02:43;29.60;97.10
26687;DHT22;14298;50.900;4.648;2022-07-29T10:05:26;28.40;97.10
26687;DHT22;14298;50.900;4.648;2022-07-29T10:07:57;27.90;97.10
26687;DHT22;14298;50.900;4.648;2022-07-29T10:10:34;27.70;97.10
26687;DHT22;14298;50.900;4.648;2022-07-29T10:13:13;27.70;97.10
26687;DHT22;14298;50.900;4.648;2022-07-29T10:15:39;27.30;97.10
26687;DHT22;14298;50.900;4.648;2022-07-29T10:18:13;28.20;97.10
26687;DHT22;14298;50.900;4.648;2022-07-29T10:20:43;29.30;97.10
26687;DHT22;14298;50.900;4.648;2022-07-29T10:23:12;29.40;97.10
26687;DHT22;14298;50.900;4.648;2022-07-29T10:25:41;28.00;97.10
26687;DHT22;14298;50.900;4.648;2022-07-29T10:28:09;27.60;97.10
26687;DHT22;14298;50.900;4.648;2022-07-29T10:30:39;27.00;97.10
26687;DHT22;14298;50.900;4.648;2022-07-29T10:33:13;26.50;97.10
26687;DHT22;14298;50.900;4.648;2022-07-29T10:44:12;26.70;97.10
26687;DHT22;14298;50.900;4.648;2022-07-29T10:46:39;25.90;97.10
26687;DHT22;14298;50.900;4.648;2022-07-29T10:49:16;25.60;97.10
26687;DHT22;14298;50.900;4.648;2022-07-29T10:51:56;25.60;97.10
26687;DHT22;14298;50.900;4.648;2022-07-29T10:54:42;25.20;97.10
26687;DHT22;14298;50.900;4.648;2022-07-29T11:02:44;25.50;97.10
26687;DHT22;14298;50.900;4.648;2022-07-29T11:05:16;25.60;97.10
26687;DHT22;14298;50.900;4.648;2022-07-29T11:10:39;26.00;97.10
26687;DHT22;14298;50.900;4.648;2022-07-29T11:13:08;26.00;97.10
26687;DHT22;14298;50.900;4.648;2022-07-29T11:15:56;25.80;97.10
26687;DHT22;14298;50.900;4.648;2022-07-29T11:18:25;25.50;97.10
26687;DHT22;14298;50.900;4.648;2022-07-29T11:20:54;25.50;97.10
26687;DHT22;14298;50.900;4.648;2022-07-29T11:23:33;25.20;97.10
26687;DHT22;14298;50.900;4.648;2022-07-29T11:29:01;25.20;97.10
26687;DHT22;14298;50.900;4.648;2022-07-29T11:31:42;25.50;97.10
26687;DHT22;14298;50.900;4.648;2022-07-29T11:34:26;25.30;97.10
26687;DHT22;14298;50.900;4.648;2022-07-29T11:39:45;25.10;97.10
26687;DHT22;14298;50.900;4.648;2022-07-29T11:45:05;25.50;97.10
26687;DHT22;14298;50.900;4.648;2022-07-29T11:47:39;25.30;97.10
26687;DHT22;14298;50.900;4.648;2022-07-29T11:50:11;25.40;97.10
26687;DHT22;14298;50.900;4.648;2022-07-29T11:52:42;25.50;97.10
26687;DHT22;14298;50.900;4.648;2022-07-29T11:55:14;25.40;97.10
26687;DHT22;14298;50.900;4.648;2022-07-29T11:57:48;25.60;97.10
26687;DHT22;14298;50.900;4.648;2022-07-29T12:00:29;25.90;97.10
26687;DHT22;14298;50.900;4.648;2022-07-29T12:02:58;26.30;97.10
26687;DHT22;14298;50.900;4.648;2022-07-29T12:05:32;26.20;97.10
26687;DHT22;14298;50.900;4.648;2022-07-29T12:08:18;26.30;97.10
26687;DHT22;14298;50.900;4.648;2022-07-29T12:10:49;26.30;97.10
26687;DHT22;14298;50.900;4.648;2022-07-29T12:13:20;26.40;97.10
26687;DHT22;14298;50.900;4.648;2022-07-29T12:15:56;26.40;97.10
26687;DHT22;14298;50.900;4.648;2022-07-29T12:18:25;26.50;97.10
26687;DHT22;14298;50.900;4.648;2022-07-29T12:20:59;26.50;97.10
26687;DHT22;14298;50.900;4.648;2022-07-29T12:23:30;26.40;97.10
26687;DHT22;14298;50.900;4.648;2022-07-29T12:25:59;26.50;97.10
26687;DHT22;14298;50.900;4.648;2022-07-29T12:28:27;26.70;97.10
26687;DHT22;14298;50.900;4.648;2022-07-29T12:30:56;26.90;97.10
26687;DHT22;14298;50.900;4.648;2022-07-29T12:33:27;26.90;97.10
26687;DHT22;14298;50.900;4.648;2022-07-29T12:35:59;26.50;97.10
26687;DHT22;14298;50.900;4.648;2022-07-29T12:38:28;26.30;97.10
26687;DHT22;14298;50.900;4.648;2022-07-29T12:40:57;26.00;97.10
26687;DHT22;14298;50.900;4.648;2022-07-29T12:43:26;26.20;97.10
26687;DHT22;14298;50.900;4.648;2022-07-29T12:45:55;26.40;97.10
26687;DHT22;14298;50.900;4.648;2022-07-29T12:48:41;26.60;97.10
26687;DHT22;14298;50.900;4.648;2022-07-29T12:51:11;26.80;97.10
26687;DHT22;14298;50.900;4.648;2022-07-29T12:53:41;26.90;97.10
26687;DHT22;14298;50.900;4.648;2022-07-29T12:56:16;26.80;97.10
26687;DHT22;14298;50.900;4.648;2022-07-29T12:58:44;27.00;97.10
26687;DHT22;14298;50.900;4.648;2022-07-29T13:01:14;27.00;97.10
26687;DHT22;14298;50.900;4.648;2022-07-29T13:03:55;26.70;97.10
26687;DHT22;14298;50.900;4.648;2022-07-29T13:06:29;27.00;97.10
26687;DHT22;14298;50.900;4.648;2022-07-29T13:08:59;27.30;97.10
26687;DHT22;14298;50.900;4.648;2022-07-29T13:11:37;27.00;97.10
26687;DHT22;14298;50.900;4.648;2022-07-29T13:14:07;26.80;97.10
26687;DHT22;14298;50.900;4.648;2022-07-29T13:16:37;26.50;97.10
26687;DHT22;14298;50.900;4.648;2022-07-29T13:19:11;26.00;97.10
26687;DHT22;14298;50.900;4.648;2022-07-29T13:21:39;26.10;97.10
26687;DHT22;14298;50.900;4.648;2022-07-29T13:24:08;26.30;97.10
26687;DHT22;14298;50.900;4.648;2022-07-29T13:26:39;26.50;97.10
26687;DHT22;14298;50.900;4.648;2022-07-29T13:29:08;26.80;97.10
26687;DHT22;14298;50.900;4.648;2022-07-29T13:31:36;27.00;97.10
26687;DHT22;14298;50.900;4.648;2022-07-29T13:34:05;27.10;97.10
26687;DHT22;14298;50.900;4.648;2022-07-29T13:36:33;27.10;97.10
26687;DHT22;14298;50.900;4.648;2022-07-29T13:39:01;27.40;97.10
26687;DHT22;14298;50.900;4.648;2022-07-29T13:41:30;27.40;97.10
26687;DHT22;14298;50.900;4.648;2022-07-29T13:43:58;27.30;97.10
26687;DHT22;14298;50.900;4.648;2022-07-29T13:46:27;27.30;97.10
26687;DHT22;14298;50.900;4.648;2022-07-29T13:48:55;27.10;97.10
26687;DHT22;14298;50.900;4.648;2022-07-29T13:51:23;26.90;97.10
26687;DHT22;14298;50.900;4.648;2022-07-29T13:53:52;26.90;97.10
26687;DHT22;14298;50.900;4.648;2022-07-29T13:56:20;26.90;97.10
26687;DHT22;14298;50.900;4.648;2022-07-29T13:58:48;26.80;97.10
26687;DHT22;14298;50.900;4.648;2022-07-29T14:01:17;26.50;97.10
26687;DHT22;14298;50.900;4.648;2022-07-29T14:03:45;26.30;97.10
26687;DHT22;14298;50.900;4.648;2022-07-29T14:06:13;26.20;97.10
26687;DHT22;14298;50.900;4.648;2022-07-29T14:08:42;26.30;97.10
26687;DHT22;14298;50.900;4.648;2022-07-29T14:11:10;26.40;97.10
26687;DHT22;14298;50.900;4.648;2022-07-29T14:13:39;26.60;97.10
26687;DHT22;14298;50.900;4.648;2022-07-29T14:16:07;26.60;97.10
26687;DHT22;14298;50.900;4.648;2022-07-29T14:18:35;26.40;97.10
26687;DHT22;14298;50.900;4.648;2022-07-29T14:21:04;26.20;97.10
26687;DHT22;14298;50.900;4.648;2022-07-29T14:23:32;26.10;97.10
26687;DHT22;14298;50.900;4.648;2022-07-29T14:26:01;26.00;97.10
26687;DHT22;14298;50.900;4.648;2022-07-29T14:28:29;25.90;97.10
26687;DHT22;14298;50.900;4.648;2022-07-29T14:30:57;25.80;97.10
26687;DHT22;14298;50.900;4.648;2022-07-29T14:33:25;25.70;97.10
26687;DHT22;14298;50.900;4.648;2022-07-29T14:35:54;25.80;97.10
26687;DHT22;14298;50.900;4.648;2022-07-29T14:38:22;26.10;97.10
26687;DHT22;14298;50.900;4.648;2022-07-29T14:40:51;26.20;97.10
26687;DHT22;14298;50.900;4.648;2022-07-29T14:43:19;26.30;97.10
26687;DHT22;14298;50.900;4.648;2022-07-29T14:45:47;26.40;97.10
26687;DHT22;14298;50.900;4.648;2022-07-29T14:48:16;26.50;97.10
26687;DHT22;14298;50.900;4.648;2022-07-29T14:50:44;26.40;97.10
26687;DHT22;14298;50.900;4.648;2022-07-29T14:53:12;26.30;97.10
26687;DHT22;14298;50.900;4.648;2022-07-29T14:55:41;26.10;97.10
26687;DHT22;14298;50.900;4.648;2022-07-29T14:58:09;26.10;97.10
26687;DHT22;14298;50.900;4.648;2022-07-29T15:00:38;26.40;97.10
26687;DHT22;14298;50.900;4.648;2022-07-29T15:03:06;26.70;97.10
26687;DHT22;14298;50.900;4.648;2022-07-29T15:05:36;26.70;97.10
26687;DHT22;14298;50.900;4.648;2022-07-29T15:08:04;26.90;97.10
26687;DHT22;14298;50.900;4.648;2022-07-29T15:10:35;26.80;97.10
26687;DHT22;14298;50.900;4.648;2022-07-29T15:13:03;26.60;97.10
26687;DHT22;14298;50.900;4.648;2022-07-29T15:15:31;26.60;97.10
26687;DHT22;14298;50.900;4.648;2022-07-29T15:18:00;26.50;97.10
26687;DHT22;14298;50.900;4.648;2022-07-29T15:20:28;26.50;97.10
26687;DHT22;14298;50.900;4.648;2022-07-29T15:22:57;26.50;97.10
26687;DHT22;14298;50.900;4.648;2022-07-29T15:25:25;26.40;97.10
26687;DHT22;14298;50.900;4.648;2022-07-29T15:27:54;26.30;97.10
26687;DHT22;14298;50.900;4.648;2022-07-29T15:30:22;26.40;97.10
26687;DHT22;14298;50.900;4.648;2022-07-29T15:32:51;26.50;97.10
26687;DHT22;14298;50.900;4.648;2022-07-29T15:35:19;26.50;97.10
26687;DHT22;14298;50.900;4.648;2022-07-29T15:37:47;26.30;97.10
26687;DHT22;14298;50.900;4.648;2022-07-29T15:40:16;26.40;97.10
26687;DHT22;14298;50.900;4.648;2022-07-29T15:42:44;26.60;97.10
26687;DHT22;14298;50.900;4.648;2022-07-29T15:45:13;26.50;97.10
26687;DHT22;14298;50.900;4.648;2022-07-29T15:47:41;26.60;97.10
26687;DHT22;14298;50.900;4.648;2022-07-29T15:50:09;26.70;97.10
26687;DHT22;14298;50.900;4.648;2022-07-29T15:52:39;26.80;97.10
26687;DHT22;14298;50.900;4.648;2022-07-29T15:55:08;26.40;97.10
26687;DHT22;14298;50.900;4.648;2022-07-29T15:57:37;26.50;97.10
26687;DHT22;14298;50.900;4.648;2022-07-29T16:00:09;26.50;97.10
26687;DHT22;14298;50.900;4.648;2022-07-29T16:02:56;26.60;97.10
26687;DHT22;14298;50.900;4.648;2022-07-29T16:05:25;26.80;97.10
26687;DHT22;14298;50.900;4.648;2022-07-29T16:07:55;26.80;97.10
26687;DHT22;14298;50.900;4.648;2022-07-29T16:10:23;26.90;97.10
26687;DHT22;14298;50.900;4.648;2022-07-29T16:12:51;27.10;97.10
26687;DHT22;14298;50.900;4.648;2022-07-29T16:15:20;26.90;97.10
26687;DHT22;14298;50.900;4.648;2022-07-29T16:17:48;26.60;97.10
26687;DHT22;14298;50.900;4.648;2022-07-29T16:20:16;26.40;97.10
26687;DHT22;14298;50.900;4.648;2022-07-29T16:22:45;26.20;97.10
26687;DHT22;14298;50.900;4.648;2022-07-29T16:25:13;26.10;97.10
26687;DHT22;14298;50.900;4.648;2022-07-29T16:27:41;26.10;97.10
26687;DHT22;14298;50.900;4.648;2022-07-29T16:30:12;26.10;97.10
26687;DHT22;14298;50.900;4.648;2022-07-29T16:32:40;25.90;97.10
26687;DHT22;14298;50.900;4.648;2022-07-29T16:35:09;25.90;97.10
26687;DHT22;14298;50.900;4.648;2022-07-29T16:37:37;26.00;97.10